Time;durP1;ratioP1;P1;durP2;ratioP2;P2;SDS_P1;SDS_P2;PMS_P1;PMS_P2;Temp;Humidity;BMP_temperature;BMP_pressure;BME280_temperature;BME280_humidity;BME280_pressure;Samples;Min_cycle;Max_cycle;Signal;HPM_P1;HPM_P2
2022/08/02 00:02:18;;;;;;;1.25;1.15;;;;;;;25.20;71.42;99377.19;5000980;28;20037;-80
2022/08/02 00:04:45;;;;;;;2.17;1.23;;;;;;;25.21;72.06;99378.81;5005377;28;20478;-80
2022/08/02 00:07:11;;;;;;;1.65;1.00;;;;;;;25.22;71.74;99369.63;4998997;28;20122;-80
2022/08/02 00:09:37;;;;;;;1.15;1.15;;;;;;;25.19;73.01;99372.84;5003179;28;20112;-80
2022/08/02 00:12:03;;;;;;;1.20;1.10;;;;;;;25.15;73.52;99374.38;5001027;28;20035;-80
2022/08/02 00:14:29;;;;;;;1.52;1.35;;;;;;;25.13;73.48;99366.53;5006107;28;20026;-80
2022/08/02 00:16:55;;;;;;;4.43;2.03;;;;;;;25.04;73.87;99373.34;5000126;28;20112;-80
2022/08/02 00:19:20;;;;;;;1.48;1.38;;;;;;;24.95;75.28;99379.38;5000095;28;20057;-80
2022/08/02 00:21:46;;;;;;;2.17;1.50;;;;;;;24.84;75.49;99379.16;5004165;28;20069;-79
2022/08/02 00:24:12;;;;;;;1.10;1.00;;;;;;;24.70;76.73;99383.16;5003960;28;20039;-78
2022/08/02 00:26:38;;;;;;;1.38;1.27;;;;;;;24.73;76.49;99371.91;4997810;28;20038;-78
2022/08/02 00:29:04;;;;;;;1.20;1.10;;;;;;;24.75;76.19;99379.75;4999915;28;20077;-79
2022/08/02 00:31:29;;;;;;;1.45;1.35;;;;;;;24.77;76.59;99383.88;5001884;28;20053;-79
2022/08/02 00:33:55;;;;;;;1.35;1.25;;;;;;;24.78;76.82;99390.91;5001574;28;20041;-80
2022/08/02 00:36:21;;;;;;;2.42;1.42;;;;;;;24.59;78.90;99386.72;5004608;28;20072;-80
2022/08/02 00:38:47;;;;;;;1.60;1.20;;;;;;;24.53;79.61;99382.28;5002840;28;20038;-80
2022/08/02 00:41:16;;;;;;;1.63;1.52;;;;;;;24.52;79.45;99386.03;4999979;28;20039;-80
2022/08/02 00:43:42;;;;;;;4.47;1.60;;;;;;;24.51;79.39;99386.25;4996247;28;20034;-80
2022/08/02 00:46:09;;;;;;;3.08;1.40;;;;;;;24.53;79.16;99382.28;4998205;28;20466;-79
2022/08/02 00:48:34;;;;;;;3.03;1.23;;;;;;;24.50;80.17;99388.16;5004196;28;20498;-80
2022/08/02 00:51:01;;;;;;;2.35;1.45;;;;;;;24.45;80.64;99380.75;5001487;28;20062;-80
2022/08/02 00:53:26;;;;;;;2.50;1.50;;;;;;;24.42;80.60;99380.41;5002956;28;20470;-79
2022/08/02 00:55:53;;;;;;;2.33;1.52;;;;;;;24.42;80.17;99380.41;4998535;28;20041;-78
2022/08/02 00:58:19;;;;;;;2.13;1.50;;;;;;;24.37;80.42;99393.78;5002530;28;20532;-80
2022/08/02 01:00:45;;;;;;;2.60;1.60;;;;;;;24.11;80.60;99394.22;5004361;28;20038;-80
2022/08/02 01:03:11;;;;;;;1.60;1.50;;;;;;;24.04;81.47;99395.16;5000994;28;20026;-81
2022/08/02 01:05:36;;;;;;;1.80;1.70;;;;;;;23.99;83.26;99384.25;5008930;28;20026;-82
2022/08/02 01:08:02;;;;;;;2.13;1.20;;;;;;;23.81;82.96;99384.34;5012626;28;20038;-80
2022/08/02 01:10:28;;;;;;;1.40;1.30;;;;;;;23.68;83.29;99379.19;5017881;28;20026;-78
2022/08/02 01:12:53;;;;;;;1.75;1.65;;;;;;;23.57;82.38;99378.09;4999652;28;20030;-78
2022/08/02 01:15:20;;;;;;;2.45;1.80;;;;;;;23.36;83.44;99380.47;5000105;28;20034;-80
2022/08/02 01:18:14;;;;;;;2.15;1.65;;;;;;;23.32;83.32;99382.00;5000015;28;20163;-80
2022/08/02 01:21:04;;;;;;;2.47;1.50;;;;;;;23.47;82.70;99377.03;5002142;28;20058;-79
2022/08/02 01:24:01;;;;;;;2.92;1.40;;;;;;;23.50;81.92;99384.66;5000175;28;20070;-80
2022/08/02 01:26:59;;;;;;;1.67;1.58;;;;;;;23.34;84.11;99382.56;4995883;28;20379;-78
2022/08/02 01:29:33;;;;;;;2.67;1.38;;;;;;;23.43;83.46;99381.22;4996122;28;20102;-79
2022/08/02 01:32:03;;;;;;;1.58;1.48;;;;;;;23.43;84.08;99371.28;4999895;28;20487;-78
2022/08/02 01:34:46;;;;;;;;;;;;;;;23.40;85.00;99378.97;5000361;28;20038;-79
2022/08/02 01:37:17;;;;;;;2.22;1.50;;;;;;;23.27;85.40;99382.66;5002279;28;20385;-79
2022/08/02 01:39:45;;;;;;;2.25;1.40;;;;;;;23.31;84.76;99388.44;5006318;28;20519;-80
2022/08/02 01:42:12;;;;;;;1.25;1.10;;;;;;;23.35;83.77;99395.00;5001876;28;20109;-79
2022/08/02 01:44:41;;;;;;;1.48;1.38;;;;;;;23.42;83.44;99391.16;5008536;28;20030;-79
2022/08/02 01:47:25;;;;;;;2.40;1.38;;;;;;;23.47;82.84;99393.19;5010735;28;20045;-79
2022/08/02 01:49:53;;;;;;;1.50;1.40;;;;;;;23.45;82.92;99384.47;5011696;28;20716;-80
2022/08/02 01:52:22;;;;;;;1.40;1.40;;;;;;;23.27;84.21;99399.66;5003167;28;20579;-79
2022/08/02 01:54:58;;;;;;;3.30;1.75;;;;;;;23.10;85.90;99393.25;5003614;28;20552;-80
2022/08/02 01:57:26;;;;;;;2.15;1.42;;;;;;;23.04;86.22;99394.16;4994992;28;20474;-80
2022/08/02 01:59:55;;;;;;;3.10;1.50;;;;;;;23.05;86.28;99393.13;5001135;28;20038;-78
2022/08/02 02:02:22;;;;;;;3.03;1.35;;;;;;;23.11;85.56;99392.22;5002614;28;20494;-79
2022/08/02 02:04:51;;;;;;;2.13;1.40;;;;;;;23.18;85.09;99392.94;5001877;28;20063;-78
2022/08/02 02:07:20;;;;;;;1.73;1.63;;;;;;;23.22;84.84;99396.81;5000503;28;20034;-79
2022/08/02 02:09:47;;;;;;;2.70;1.33;;;;;;;23.07;86.45;99393.72;5001985;28;20038;-80
2022/08/02 02:12:14;;;;;;;1.50;1.40;;;;;;;22.91;86.98;99399.75;4998295;28;20562;-80
2022/08/02 02:14:42;;;;;;;1.50;1.40;;;;;;;22.79;88.70;99406.94;5003103;28;20413;-77
2022/08/02 02:17:09;;;;;;;1.98;1.70;;;;;;;22.77;89.27;99404.44;5000703;28;20517;-79
2022/08/02 02:19:37;;;;;;;3.65;1.52;;;;;;;22.71;89.72;99402.63;4997033;28;20378;-78
2022/08/02 02:22:03;;;;;;;2.20;1.60;;;;;;;22.63;90.69;99402.09;5001530;28;20113;-76
2022/08/02 02:24:29;;;;;;;3.30;2.13;;;;;;;22.55;91.28;99397.84;5001976;28;20030;-78
2022/08/02 02:26:57;;;;;;;2.08;1.80;;;;;;;22.55;92.33;99405.09;5002251;28;20469;-78
2022/08/02 02:29:25;;;;;;;1.67;1.58;;;;;;;22.34;94.19;99399.09;5000651;28;20103;-78
2022/08/02 02:31:54;;;;;;;2.03;1.80;;;;;;;21.97;94.84;99408.16;4997680;28;20430;-78
2022/08/02 02:34:36;;;;;;;2.05;1.95;;;;;;;21.88;95.19;99404.03;5003064;28;20029;-79
2022/08/02 02:37:04;;;;;;;4.65;1.80;;;;;;;21.70;95.43;99395.91;5002597;28;20420;-80
2022/08/02 02:39:32;;;;;;;3.67;2.00;;;;;;;21.68;95.49;99398.03;5000611;28;20026;-78
2022/08/02 02:42:02;;;;;;;1.80;1.70;;;;;;;21.82;95.36;99399.53;5001817;28;20386;-77
2022/08/02 02:44:29;;;;;;;3.42;2.00;;;;;;;21.91;93.87;99404.41;5004773;28;20397;-78
2022/08/02 02:46:55;;;;;;;1.70;1.60;;;;;;;21.97;93.97;99402.78;5002904;28;20026;-79
2022/08/02 02:49:24;;;;;;;3.60;1.60;;;;;;;21.98;94.14;99404.41;4999590;28;20073;-79
2022/08/02 02:51:51;;;;;;;3.53;1.40;;;;;;;21.87;94.40;99410.44;5005602;28;20057;-77
2022/08/02 02:54:17;;;;;;;1.80;1.70;;;;;;;21.86;94.83;99414.16;4999308;28;20443;-79
2022/08/02 02:56:44;;;;;;;1.60;1.50;;;;;;;21.93;95.06;99406.88;5004991;28;20124;-79
2022/08/02 02:59:13;;;;;;;2.92;1.80;;;;;;;21.75;96.22;99409.50;5003208;28;20076;-78
2022/08/02 03:01:39;;;;;;;2.85;1.70;;;;;;;21.68;97.74;99414.13;5005673;28;20084;-79
2022/08/02 03:04:06;;;;;;;2.45;2.00;;;;;;;21.73;97.46;99416.97;5003760;28;20454;-78
2022/08/02 03:06:35;;;;;;;2.47;1.77;;;;;;;21.67;97.27;99413.31;5004151;28;20070;-78
2022/08/02 03:09:02;;;;;;;1.77;1.67;;;;;;;21.72;97.06;99416.16;5003044;28;20057;-78
2022/08/02 03:11:28;;;;;;;1.98;1.83;;;;;;;21.72;97.18;99420.69;5003363;28;20398;-76
2022/08/02 03:14:02;;;;;;;1.73;1.60;;;;;;;21.76;97.47;99419.22;5002195;28;20445;-78
2022/08/02 03:16:28;;;;;;;2.22;1.90;;;;;;;21.69;97.79;99421.13;4999139;28;20458;-77
2022/08/02 03:18:55;;;;;;;2.33;2.13;;;;;;;21.77;97.98;99423.56;5004439;28;20045;-76
2022/08/02 03:21:21;;;;;;;2.00;1.48;;;;;;;21.77;97.55;99428.94;4996694;28;20406;-78
2022/08/02 03:23:47;;;;;;;2.45;1.83;;;;;;;21.78;97.29;99430.56;5000020;28;20367;-78
2022/08/02 03:26:14;;;;;;;1.92;1.80;;;;;;;21.78;97.37;99425.22;5004664;28;20433;-78
2022/08/02 03:28:40;;;;;;;2.10;1.90;;;;;;;21.77;97.26;99428.94;5001979;28;20035;-79
2022/08/02 03:31:06;;;;;;;1.77;1.67;;;;;;;21.78;97.33;99426.03;5005744;28;20456;-78
2022/08/02 03:33:34;;;;;;;2.80;1.85;;;;;;;21.70;97.77;99433.50;5000638;28;20031;-79
2022/08/02 03:36:09;;;;;;;2.50;1.77;;;;;;;21.68;97.79;99432.94;5003808;28;20034;-79
2022/08/02 03:38:36;;;;;;;1.73;1.63;;;;;;;21.61;98.24;99436.47;5001387;28;20398;-77
2022/08/02 03:41:03;;;;;;;3.20;2.00;;;;;;;21.49;98.86;99446.25;5000540;28;20158;-77
2022/08/02 03:43:30;;;;;;;2.53;1.85;;;;;;;21.54;98.45;99449.13;5002530;28;20026;-78
2022/08/02 03:45:57;;;;;;;2.75;1.90;;;;;;;21.61;98.41;99451.78;5004102;28;20027;-80
2022/08/02 03:48:24;;;;;;;1.80;1.70;;;;;;;21.67;97.85;99452.75;5003856;28;20031;-79
2022/08/02 03:50:51;;;;;;;3.47;1.77;;;;;;;21.70;97.22;99445.09;5004126;28;20445;-79
2022/08/02 03:53:17;;;;;;;1.75;1.63;;;;;;;21.73;96.91;99449.22;5001323;28;20034;-79
2022/08/02 03:55:43;;;;;;;2.88;1.90;;;;;;;21.57;98.09;99450.53;5003498;28;20044;-79
2022/08/02 03:58:16;;;;;;;3.22;2.00;;;;;;;21.58;98.44;99453.00;4999890;28;20030;-79
2022/08/02 04:00:42;;;;;;;4.68;1.88;;;;;;;21.54;98.32;99457.19;5005094;28;20429;-79
2022/08/02 04:03:07;;;;;;;3.10;1.83;;;;;;;21.49;98.18;99459.69;5000428;28;20121;-78
2022/08/02 04:05:33;;;;;;;2.28;2.08;;;;;;;21.50;98.00;99472.03;5002778;28;20062;-77
2022/08/02 04:07:59;;;;;;;2.25;2.05;;;;;;;21.52;97.94;99471.84;5001882;28;20026;-76
2022/08/02 04:10:25;;;;;;;2.38;1.73;;;;;;;21.57;97.65;99462.09;5004269;28;20038;-78
2022/08/02 04:12:51;;;;;;;2.38;2.17;;;;;;;21.43;98.67;99468.59;4997206;28;20034;-79
2022/08/02 04:15:17;;;;;;;1.88;1.75;;;;;;;21.41;99.22;99481.41;5002200;28;20030;-79
2022/08/02 04:17:51;;;;;;;1.60;1.50;;;;;;;21.45;99.29;99479.09;5004261;28;20044;-77
2022/08/02 04:20:21;;;;;;;3.05;1.95;;;;;;;21.51;99.40;99484.44;5002561;28;20087;-77
2022/08/02 04:23:00;;;;;;;2.15;2.03;;;;;;;21.57;99.18;99488.94;5005793;28;20085;-79
2022/08/02 04:25:26;;;;;;;2.25;1.63;;;;;;;21.63;98.85;99488.09;4999569;28;20034;-78
2022/08/02 04:27:53;;;;;;;2.00;1.88;;;;;;;21.70;98.01;99497.97;5004845;28;20046;-78
2022/08/02 04:30:20;;;;;;;1.98;1.85;;;;;;;21.69;98.69;99499.00;5004858;28;20084;-78
2022/08/02 04:32:45;;;;;;;2.38;2.03;;;;;;;21.68;99.00;99500.06;5004667;28;20038;-78
2022/08/02 04:35:12;;;;;;;2.10;2.00;;;;;;;21.70;99.22;99497.97;5002177;28;20029;-79
2022/08/02 04:37:38;;;;;;;1.88;1.77;;;;;;;21.50;100.00;99504.25;5001875;28;20038;-80
2022/08/02 04:40:09;;;;;;;3.00;1.88;;;;;;;21.52;100.00;99510.25;5003348;28;20034;-77
2022/08/02 04:42:35;;;;;;;2.45;1.73;;;;;;;21.47;100.00;99504.72;5000234;28;20117;-80
2022/08/02 04:45:02;;;;;;;3.10;2.05;;;;;;;21.34;100.00;99512.00;5003811;28;20037;-81
2022/08/02 04:47:27;;;;;;;1.95;1.80;;;;;;;21.32;100.00;99517.59;5001139;28;20394;-79
2022/08/02 04:49:53;;;;;;;2.40;2.20;;;;;;;21.28;100.00;99521.72;5001688;28;20026;-79
2022/08/02 04:52:19;;;;;;;4.70;2.28;;;;;;;21.18;100.00;99524.03;5004349;28;20039;-79
2022/08/02 04:54:45;;;;;;;5.05;2.15;;;;;;;21.23;100.00;99529.59;5001312;28;20034;-78
2022/08/02 04:59:55;;;;;;;2.38;2.17;;;;;;;21.25;100.00;99543.63;5000281;28;20363;-73
2022/08/02 05:02:21;;;;;;;2.35;2.05;;;;;;;21.30;100.00;99541.13;4998813;28;20434;-73
2022/08/02 05:04:46;;;;;;;1.90;1.80;;;;;;;21.37;100.00;99547.31;5001958;28;20029;-73
2022/08/02 05:07:12;;;;;;;2.85;2.22;;;;;;;21.47;100.00;99553.03;4999423;28;20034;-73
2022/08/02 05:09:37;;;;;;;5.47;2.55;;;;;;;21.57;100.00;99564.13;5001949;28;20037;-73
2022/08/02 05:12:03;;;;;;;2.40;2.20;;;;;;;21.72;100.00;99560.34;5000534;28;20026;-72
2022/08/02 05:14:28;;;;;;;1.80;1.70;;;;;;;21.82;97.69;99571.44;5002139;28;20034;-72
2022/08/02 05:16:54;;;;;;;2.90;2.10;;;;;;;21.89;96.69;99561.50;4999386;28;20058;-72
2022/08/02 05:19:19;;;;;;;1.90;1.80;;;;;;;21.98;95.97;99576.34;5005538;28;20157;-71
2022/08/02 05:21:45;;;;;;;3.28;1.60;;;;;;;22.08;95.31;99576.72;5000529;28;20076;-72
2022/08/02 05:24:11;;;;;;;2.70;1.88;;;;;;;22.19;94.97;99575.19;5003410;28;20030;-72
2022/08/02 05:26:36;;;;;;;1.75;1.65;;;;;;;22.23;94.33;99577.22;4998568;28;20066;-72
2022/08/02 05:29:03;;;;;;;1.80;1.70;;;;;;;22.30;94.07;99572.63;5002682;28;20065;-72
2022/08/02 05:31:29;;;;;;;2.85;1.85;;;;;;;22.41;93.46;99582.69;4999902;28;20038;-73
2022/08/02 05:33:55;;;;;;;1.80;1.70;;;;;;;22.37;95.03;99589.53;5001385;28;20029;-72
2022/08/02 05:36:21;;;;;;;3.13;1.98;;;;;;;22.50;94.71;99593.19;5004452;28;20030;-72
2022/08/02 05:38:46;;;;;;;4.50;2.10;;;;;;;22.51;95.44;99592.94;5003656;28;20042;-73
2022/08/02 05:41:12;;;;;;;2.88;2.30;;;;;;;22.52;95.64;99609.91;5000648;28;20038;-73
2022/08/02 05:43:38;;;;;;;3.70;1.98;;;;;;;22.48;95.73;99604.16;5002793;28;20038;-69
2022/08/02 05:46:03;;;;;;;1.95;1.85;;;;;;;22.39;95.74;99603.56;5000238;28;20149;-74
2022/08/02 05:48:29;;;;;;;3.38;2.03;;;;;;;22.38;95.80;99610.00;5004320;28;20036;-72
2022/08/02 05:51:05;;;;;;;2.60;2.38;;;;;;;22.46;95.95;99607.03;4997062;28;20080;-73
2022/08/02 05:53:46;;;;;;;3.97;2.15;;;;;;;22.54;95.32;99613.19;4996547;28;20030;-74
2022/08/02 05:56:24;;;;;;;2.13;2.03;;;;;;;22.62;94.38;99621.81;5000014;28;20042;-72
2022/08/02 05:59:26;;;;;;;2.58;2.38;;;;;;;22.58;94.84;99619.78;5002071;28;20104;-71
2022/08/02 06:01:59;;;;;;;4.15;2.80;;;;;;;22.50;95.87;99630.81;4995541;28;20552;-72
2022/08/02 06:04:31;;;;;;;4.00;2.28;;;;;;;22.59;95.65;99642.94;4982717;28;20363;-71
2022/08/02 06:07:01;;;;;;;3.78;2.15;;;;;;;22.68;95.58;99653.22;4985509;28;20030;-71
2022/08/02 06:09:28;;;;;;;4.40;2.28;;;;;;;22.78;94.90;99647.38;4990167;28;20438;-73
2022/08/02 06:11:57;;;;;;;2.83;2.30;;;;;;;22.88;94.84;99647.72;4985231;28;20049;-74
2022/08/02 06:14:24;;;;;;;2.53;1.95;;;;;;;23.00;94.32;99651.34;4987131;28;20037;-73
2022/08/02 06:16:50;;;;;;;2.67;1.70;;;;;;;23.08;94.37;99653.75;4988528;28;20334;-72
2022/08/02 06:19:17;;;;;;;5.10;2.22;;;;;;;23.17;94.34;99657.78;4986522;28;20430;-73
2022/08/02 06:21:44;;;;;;;4.03;2.10;;;;;;;23.30;94.21;99646.09;5003986;28;20052;-74
2022/08/02 06:24:11;;;;;;;3.13;2.00;;;;;;;23.42;93.95;99644.28;4989804;28;20505;-73
2022/08/02 06:26:37;;;;;;;2.17;2.08;;;;;;;23.53;92.70;99654.34;5000887;28;20089;-75
2022/08/02 06:29:03;;;;;;;2.25;1.83;;;;;;;23.64;92.03;99659.00;5000018;28;20038;-73
2022/08/02 06:31:29;;;;;;;2.47;2.00;;;;;;;23.78;91.79;99661.53;4990053;28;20041;-73
2022/08/02 06:33:56;;;;;;;5.07;1.88;;;;;;;23.88;91.66;99659.94;4995989;28;20426;-73
2022/08/02 06:36:41;;;;;;;2.88;1.85;;;;;;;24.03;91.81;99663.06;4995356;28;20039;-73
2022/08/02 06:39:22;;;;;;;2.92;2.00;;;;;;;24.21;90.66;99661.44;4994700;28;20035;-73
2022/08/02 06:41:51;;;;;;;2.70;2.50;;;;;;;24.39;89.38;99669.44;5001620;28;20421;-71
2022/08/02 06:44:23;;;;;;;2.97;2.67;;;;;;;24.55;87.47;99671.53;4999539;28;20038;-73
2022/08/02 06:46:49;;;;;;;5.18;3.00;;;;;;;24.69;86.92;99678.34;4993087;28;20031;-72
2022/08/02 06:49:16;;;;;;;4.57;3.35;;;;;;;24.82;86.57;99678.13;5000363;28;20093;-73
2022/08/02 06:51:41;;;;;;;4.90;3.85;;;;;;;24.91;85.59;99685.94;4996365;28;20132;-73
2022/08/02 06:54:07;;;;;;;6.65;5.07;;;;;;;24.97;85.42;99679.63;4998304;28;20109;-73
2022/08/02 06:56:33;;;;;;;5.32;4.82;;;;;;;25.03;85.02;99681.38;4999169;28;20061;-72
2022/08/02 06:58:58;;;;;;;8.30;5.15;;;;;;;25.13;85.21;99685.13;4997966;28;20110;-73
2022/08/02 07:01:24;;;;;;;6.45;5.80;;;;;;;25.20;84.18;99679.63;4997300;28;20077;-73
2022/08/02 07:03:49;;;;;;;6.35;5.25;;;;;;;25.25;83.98;99690.53;5000298;28;20068;-72
2022/08/02 07:06:15;;;;;;;6.47;5.30;;;;;;;25.41;83.23;99683.59;4997408;28;20037;-72
2022/08/02 07:08:41;;;;;;;8.50;3.85;;;;;;;25.53;82.99;99687.94;5000449;28;20043;-72
2022/08/02 07:11:08;;;;;;;9.23;4.05;;;;;;;25.69;82.58;99684.53;4999288;28;20121;-72
2022/08/02 07:13:33;;;;;;;7.13;4.82;;;;;;;25.92;81.20;99690.97;4998473;28;20026;-72
2022/08/02 07:16:00;;;;;;;5.20;4.07;;;;;;;26.06;81.00;99703.16;4998067;28;20088;-72
2022/08/02 07:18:25;;;;;;;4.72;4.20;;;;;;;26.19;80.51;99700.16;4999787;28;20133;-72
2022/08/02 07:20:53;;;;;;;7.07;3.92;;;;;;;26.30;80.66;99703.91;4996120;28;20102;-72
2022/08/02 07:23:19;;;;;;;4.47;3.83;;;;;;;26.42;79.92;99705.53;4996980;28;20394;-73
2022/08/02 07:25:46;;;;;;;4.35;4.00;;;;;;;26.47;80.51;99713.72;4995738;28;20406;-72
2022/08/02 07:28:14;;;;;;;4.68;3.78;;;;;;;26.33;81.86;99717.78;5002567;28;20398;-73
2022/08/02 07:30:40;;;;;;;5.90;3.58;;;;;;;26.33;82.54;99709.66;5000605;28;20069;-72
2022/08/02 07:33:06;;;;;;;4.63;3.05;;;;;;;26.43;83.05;99718.00;4997524;28;20026;-72
2022/08/02 07:35:31;;;;;;;3.33;3.00;;;;;;;26.56;82.90;99710.63;5002241;28;20081;-75
2022/08/02 07:37:57;;;;;;;5.63;2.97;;;;;;;26.61;82.81;99710.72;5001403;28;20092;-73
2022/08/02 07:40:23;;;;;;;3.35;3.05;;;;;;;26.69;82.46;99715.72;5006794;28;20033;-71
2022/08/02 07:42:51;;;;;;;3.90;2.90;;;;;;;26.69;82.53;99710.31;5001622;28;20409;-73
2022/08/02 07:45:18;;;;;;;5.05;2.95;;;;;;;26.77;81.86;99708.03;4995611;28;20041;-71
2022/08/02 07:47:44;;;;;;;2.95;2.72;;;;;;;26.90;82.17;99709.66;4990863;28;20394;-73
2022/08/02 07:50:12;;;;;;;6.30;2.80;;;;;;;26.96;82.17;99711.38;4996890;28;20093;-72
2022/08/02 07:52:38;;;;;;;5.13;2.80;;;;;;;26.93;83.27;99706.44;4996860;28;20473;-72
2022/08/02 07:55:05;;;;;;;4.88;2.85;;;;;;;26.86;84.52;99705.78;4991852;28;20446;-73
2022/08/02 07:57:31;;;;;;;6.78;2.78;;;;;;;26.74;85.91;99713.94;4976747;28;20050;-72
2022/08/02 07:59:57;;;;;;;5.80;2.80;;;;;;;26.70;86.37;99701.13;4994362;28;20095;-72
2022/08/02 08:02:26;;;;;;;3.20;2.70;;;;;;;26.62;87.18;99710.50;5000970;28;20133;-73
2022/08/02 08:04:52;;;;;;;9.73;2.78;;;;;;;26.58;87.92;99711.19;4992913;28;20497;-73
2022/08/02 08:07:18;;;;;;;3.17;2.88;;;;;;;26.58;89.11;99709.31;4999053;28;20091;-73
2022/08/02 08:09:46;;;;;;;4.70;2.60;;;;;;;26.62;89.16;99712.38;4989109;28;20398;-73
2022/08/02 08:12:11;;;;;;;5.97;3.03;;;;;;;26.70;89.31;99709.25;4999910;28;20382;-72
2022/08/02 08:14:38;;;;;;;4.93;2.63;;;;;;;26.70;89.39;99712.78;5001325;28;20031;-72
2022/08/02 08:17:07;;;;;;;6.45;2.70;;;;;;;26.76;89.49;99711.00;4994583;28;20463;-71
2022/08/02 08:19:33;;;;;;;5.90;3.00;;;;;;;26.84;89.03;99714.13;4995476;28;20394;-72
2022/08/02 08:21:59;;;;;;;6.80;2.75;;;;;;;26.98;88.93;99709.22;4991818;28;20026;-72
2022/08/02 08:24:28;;;;;;;6.53;2.30;;;;;;;27.09;88.01;99711.06;4993851;28;20042;-72
2022/08/02 08:26:54;;;;;;;4.78;2.17;;;;;;;27.21;86.62;99698.25;4993553;28;20397;-72
2022/08/02 08:29:20;;;;;;;6.53;2.10;;;;;;;27.32;85.94;99709.25;4992492;28;20030;-72
2022/08/02 08:31:46;;;;;;;5.47;2.20;;;;;;;27.38;85.18;99719.09;4995412;28;20042;-70
2022/08/02 08:34:12;;;;;;;6.00;2.28;;;;;;;27.35;81.46;99714.16;4994484;28;20049;-71
2022/08/02 08:36:39;;;;;;;8.70;2.25;;;;;;;27.37;81.55;99717.44;4993344;28;20040;-71
2022/08/02 08:39:04;;;;;;;2.60;2.03;;;;;;;27.34;79.99;99712.50;4995018;28;20096;-72
2022/08/02 08:41:30;;;;;;;5.32;1.65;;;;;;;27.38;78.99;99719.09;4995993;28;20030;-71
2022/08/02 08:43:58;;;;;;;3.03;1.65;;;;;;;27.34;78.48;99717.91;4996079;28;20054;-71
2022/08/02 08:46:29;;;;;;;6.35;1.60;;;;;;;27.40;77.93;99711.50;4994671;28;20038;-70
2022/08/02 08:49:05;;;;;;;10.10;2.00;;;;;;;27.50;76.40;99723.34;4992671;28;20387;-71
2022/08/02 08:51:36;;;;;;;2.90;1.55;;;;;;;27.61;75.62;99724.34;4993537;28;20394;-72
2022/08/02 08:54:04;;;;;;;5.28;1.40;;;;;;;27.62;71.77;99731.41;4996475;28;20577;-72
2022/08/02 08:56:33;;;;;;;3.53;1.55;;;;;;;27.58;70.86;99731.06;4996734;28;20371;-74
2022/08/02 08:59:00;;;;;;;3.55;1.67;;;;;;;27.57;70.31;99734.00;4997396;28;20080;-74
2022/08/02 09:01:26;;;;;;;2.70;1.48;;;;;;;27.56;69.91;99724.28;4997545;28;20042;-75
2022/08/02 09:03:52;;;;;;;3.95;2.78;;;;;;;27.60;69.70;99733.53;4999261;28;20041;-74
2022/08/02 09:06:18;;;;;;;3.50;1.30;;;;;;;27.68;68.53;99733.94;4996452;28;20038;-74
2022/08/02 09:08:43;;;;;;;2.95;1.70;;;;;;;27.79;66.72;99728.66;4999018;28;20129;-76
2022/08/02 09:11:14;;;;;;;3.83;1.30;;;;;;;27.90;66.38;99744.81;4997061;28;20037;-76
2022/08/02 09:13:50;;;;;;;3.90;1.50;;;;;;;27.96;63.22;99742.97;4996659;28;20110;-75
2022/08/02 09:16:28;;;;;;;5.32;1.75;;;;;;;27.98;63.07;99741.63;4997770;28;20081;-75
2022/08/02 09:18:55;;;;;;;2.50;1.35;;;;;;;28.14;62.49;99745.41;4995436;28;20084;-74
2022/08/02 09:21:20;;;;;;;4.05;1.33;;;;;;;28.26;61.88;99742.56;4997566;28;20045;-74
2022/08/02 09:23:48;;;;;;;4.30;1.52;;;;;;;28.24;62.31;99750.13;4995974;28;20042;-76
2022/08/02 09:26:22;;;;;;;2.45;1.40;;;;;;;28.22;64.40;99752.28;4995427;28;20039;-75
2022/08/02 09:28:51;;;;;;;4.03;1.30;;;;;;;28.30;64.42;99754.56;5001922;28;20120;-76
2022/08/02 09:31:19;;;;;;;3.63;1.40;;;;;;;28.40;65.06;99754.66;5003597;28;20041;-77
2022/08/02 09:33:50;;;;;;;2.30;1.25;;;;;;;28.46;63.72;99754.47;5002453;28;20661;-76
2022/08/02 09:36:16;;;;;;;4.53;1.40;;;;;;;28.44;62.94;99755.81;5005043;28;20069;-76
2022/08/02 09:38:56;;;;;;;2.60;1.08;;;;;;;28.49;64.54;99753.16;5005442;28;20433;-76
2022/08/02 09:41:27;;;;;;;6.25;2.10;;;;;;;28.45;60.69;99762.88;4994231;28;20034;-79
2022/08/02 09:43:54;;;;;;;3.38;1.15;;;;;;;28.37;61.54;99766.03;4998410;28;20026;-75
2022/08/02 09:46:29;;;;;;;2.97;1.52;;;;;;;28.30;61.05;99762.69;4999497;28;20084;-75
2022/08/02 09:48:57;;;;;;;2.40;1.13;;;;;;;28.26;60.89;99764.28;4990258;28;20038;-75
2022/08/02 09:51:29;;;;;;;6.88;1.40;;;;;;;28.31;61.40;99767.03;4992900;28;20053;-77
2022/08/02 09:54:00;;;;;;;4.47;1.10;;;;;;;28.40;61.79;99766.34;4994469;28;20046;-76
2022/08/02 09:56:28;;;;;;;5.43;1.50;;;;;;;28.55;61.15;99762.16;4992294;28;20041;-74
2022/08/02 09:58:55;;;;;;;1.77;1.25;;;;;;;28.61;59.42;99761.97;4995552;28;20039;-76
2022/08/02 10:01:31;;;;;;;6.53;1.38;;;;;;;28.69;58.89;99769.63;4997017;28;20026;-74
2022/08/02 10:03:59;;;;;;;4.63;1.20;;;;;;;28.71;58.52;99772.94;4994914;28;20031;-74
2022/08/02 10:06:26;;;;;;;2.75;1.27;;;;;;;28.67;59.00;99758.22;4996286;28;20030;-74
2022/08/02 10:08:52;;;;;;;6.32;1.27;;;;;;;28.77;59.38;99762.97;4995795;28;20074;-76
2022/08/02 10:11:23;;;;;;;2.58;1.50;;;;;;;28.85;57.71;99755.19;4994970;28;20033;-75
2022/08/02 10:13:50;;;;;;;1.75;1.35;;;;;;;28.89;57.55;99759.03;4991158;28;20037;-75
2022/08/02 10:16:18;;;;;;;8.45;1.55;;;;;;;28.92;58.04;99758.50;4999113;28;20030;-75
2022/08/02 10:18:44;;;;;;;7.38;1.60;;;;;;;28.87;59.46;99750.31;4994544;28;20033;-75
2022/08/02 10:21:21;;;;;;;1.95;1.10;;;;;;;28.89;58.58;99759.03;4997381;28;20101;-75
2022/08/02 10:23:48;;;;;;;5.32;1.10;;;;;;;28.90;58.68;99760.66;4992299;28;20038;-75
2022/08/02 10:26:16;;;;;;;2.45;1.13;;;;;;;28.97;57.47;99754.22;4998500;28;20097;-75
2022/08/02 10:28:46;;;;;;;2.05;1.25;;;;;;;28.90;58.21;99752.53;4992529;28;20045;-75
2022/08/02 10:31:17;;;;;;;1.48;1.35;;;;;;;28.95;57.61;99745.47;4997580;28;20026;-74
2022/08/02 10:33:44;;;;;;;4.28;1.60;;;;;;;28.94;58.31;99743.84;4995211;28;20030;-74
2022/08/02 10:36:11;;;;;;;2.22;1.70;;;;;;;28.99;58.47;99746.59;4998777;28;20052;-76
2022/08/02 10:38:37;;;;;;;3.20;1.33;;;;;;;28.98;58.95;99745.81;5001242;28;20030;-76
2022/08/02 10:41:03;;;;;;;4.38;1.10;;;;;;;29.02;58.49;99746.91;4300606;28;10000686;-77
2022/08/02 10:43:31;;;;;;;3.97;1.27;;;;;;;29.11;59.70;99745.34;4646540;28;10000607;-75
2022/08/02 10:46:19;;;;;;;3.17;1.00;;;;;;;29.03;60.71;99747.75;4991455;28;20164;-76
2022/08/02 10:49:06;;;;;;;3.53;1.25;;;;;;;29.03;61.39;99745.84;4738425;28;10000834;-76
2022/08/02 10:52:04;;;;;;;3.97;2.40;;;;;;;29.04;61.45;99746.66;4997629;28;20278;-77
2022/08/02 10:54:30;;;;;;;4.32;1.25;;;;;;;29.06;61.15;99752.66;4996951;28;20038;-77
2022/08/02 10:56:57;;;;;;;5.78;1.38;;;;;;;29.02;60.52;99751.53;5002192;28;20057;-77
2022/08/02 10:59:25;;;;;;;3.10;1.40;;;;;;;28.98;60.38;99750.41;4996183;28;20045;-77
2022/08/02 11:01:55;;;;;;;3.70;1.35;;;;;;;28.87;61.27;99744.88;4996315;28;20042;-76
2022/08/02 11:04:21;;;;;;;3.30;1.75;;;;;;;28.95;61.44;99748.19;4995931;28;20401;-74
2022/08/02 11:07:36;;;;;;;2.03;1.33;;;;;;;28.92;60.95;99748.72;5000926;28;20029;-75
2022/08/02 11:10:23;;;;;;;1.85;1.33;;;;;;;29.00;60.92;99742.81;4926804;29;20506;-78
2022/08/02 11:13:20;;;;;;;2.97;1.30;;;;;;;29.12;60.38;99740.75;4934739;29;20531;-76
2022/08/02 11:15:54;;;;;;;1.98;1.20;;;;;;;29.28;60.13;99739.78;4929428;29;20052;-75
2022/08/02 11:18:20;;;;;;;5.47;2.08;;;;;;;29.28;58.77;99735.16;4589484;29;10000429;-76
2022/08/02 11:20:47;;;;;;;2.72;1.60;;;;;;;29.27;58.11;99730.00;4934564;29;20052;-76
2022/08/02 11:23:36;;;;;;;2.78;1.40;;;;;;;29.34;58.27;99727.88;4936492;29;20052;-75
2022/08/02 11:26:27;;;;;;;2.75;1.40;;;;;;;29.26;58.37;99731.09;4934560;29;20041;-77
2022/08/02 11:28:53;;;;;;;5.18;1.27;;;;;;;29.17;58.52;99732.63;4579193;29;10000467;-77
2022/08/02 11:31:19;;;;;;;1.70;1.30;;;;;;;29.29;58.92;99725.09;4934418;29;20039;-75
2022/08/02 11:33:48;;;;;;;2.58;1.40;;;;;;;29.41;57.81;99727.66;4935270;29;20159;-74
2022/08/02 11:36:14;;;;;;;1.23;1.15;;;;;;;29.47;57.89;99722.00;4940893;29;20040;-73
2022/08/02 11:38:41;;;;;;;2.13;1.30;;;;;;;29.49;57.10;99708.97;4933914;29;20127;-74
2022/08/02 11:41:07;;;;;;;4.68;1.42;;;;;;;29.51;57.43;99711.44;4978098;28;20122;-77
2022/08/02 11:43:33;;;;;;;2.63;1.20;;;;;;;29.60;56.84;99705.22;4998325;28;20149;-75